Newcastle, Australia
Current Conditions -  °F | °C
As of 10:00 AM on Thursday 18 Dec 2014 (Local Time) from YWLM Reporting Station
Broken Clouds Broken Clouds  
Wind Chill: 75°   Ceiling: 2200
Heat Index: 75°   Visibility: 6mi
Dew Point: 64°   Wind: 10mph
Humidity: 69%   Direction: 50°NE
Pressure: 29.74"   Gusts: NA
Location:  32.93°S, 151.78°E
Report Text: YWLM 172300Z 05009KT 9999 FEW012 BKN022 24/18 Q1007
Loading
Personal Weather Stations






























Interactive Weather Map New forecast layout! Learn more

10-Day Weather Forecast

Advertisements
Track Severe Weather on mobile